Date,TemperatureHighF,TemperatureAvgF,TemperatureLowF,DewpointHighF,DewpointAvgF,DewpointLowF,HumidityHigh,HumidityAvg,HumidityLow,PressureMaxIn,PressureMinIn,WindSpeedMaxMPH,WindSpeedAvgMPH,GustSpeedMaxMPH,PrecipitationSumIn
2013-1-1,25.3,17.3,7.5,18.6,9.6,-0.8,88,72,60,30.32,30.20,6,1,10,0.00
2013-1-2,35.1,20.9,6.4,24.6,13.3,-1.9,91,72,62,30.26,30.14,6,1,11,0.00
2013-1-3,35.6,25.4,15.6,26.4,20.9,13.5,94,83,68,30.43,30.26,5,1,7,0.03
2013-1-4,42.4,27.1,13.6,30.3,21.5,11.3,93,80,61,30.41,30.23,7,1,13,0.06
2013-1-5,46.4,36.4,27.9,33.9,29.0,21.8,87,75,61,30.24,29.14,8,3,13,0.06
2013-1-6,43.5,30.1,19.4,27.4,21.3,14.8,85,70,52,30.42,30.24,5,1,9,0.00
2013-1-7,50.4,37.9,27.9,33.5,26.5,20.6,75,64,50,30.27,30.03,8,3,13,0.00
2013-1-8,55.6,41.3,31.5,39.6,31.6,26.5,82,69,52,30.21,29.94,7,3,12,0.00
2013-1-9,55.2,36.4,24.1,40.2,29.6,22.0,93,78,56,30.44,30.21,5,0,8,0.00
2013-1-10,45.9,41.7,31.5,44.8,39.8,28.0,98,93,68,30.33,29.77,9,2,9,0.24
2013-1-11,57.6,51.3,44.2,48.8,45.5,29.7,99,82,45,29.77,29.56,14,6,14,0.00
2013-1-12,46.0,27.8,19.8,34.9,17.4,10.2,80,65,56,30.15,29.77,12,5,12,0.00
2013-1-13,27.7,18.8,12.7,10.8,5.5,-1.8,87,57,33,30.39,30.12,10,3,10,0.00
2013-1-14,32.2,19.1,8.2,15.7,6.7,1.0,83,61,32,30.53,30.39,8,1,8,0.00
2013-1-15,35.1,22.1,12.7,20.6,10.1,3.7,84,63,33,30.42,30.18,6,1,6,0.00
2013-1-16,49.1,31.7,17.4,28.5,18.2,4.6,84,58,43,30.24,30.03,12,2,12,0.00
2013-1-17,48.9,34.0,22.5,32.6,25.0,18.8,92,71,47,30.50,30.24,6,1,6,0.01
2013-1-18,59.4,44.1,28.0,34.0,26.1,22.1,88,52,29,30.39,30.03,20,6,20,0.00
2013-1-19,63.0,46.8,36.9,33.7,26.2,17.9,64,47,20,30.27,29.97,10,4,10,0.00
2013-1-20,40.8,28.6,19.8,26.7,12.2,5.7,72,51,33,30.44,30.30,10,5,10,0.00
2013-1-21,24.4,18.8,13.6,12.4,6.6,2.3,73,59,43,30.48,30.39,8,3,8,0.00
2013-1-22,33.6,22.0,13.8,10.3,6.0,1.7,61,51,35,30.39,30.24,8,2,8,0.00
2013-1-23,47.8,28.4,12.9,23.0,14.3,3.9,80,58,34,30.44,30.18,12,3,12,0.00
2013-1-24,28.6,21.9,11.5,12.3,4.6,0.3,67,48,33,30.50,30.18,13,4,13,0.00
2013-1-25,49.3,31.9,16.9,21.5,14.2,5.4,70,49,31,30.27,30.18,6,1,6,0.00
2013-1-26,58.1,41.1,25.9,31.2,22.1,17.3,77,51,23,30.27,30.06,10,3,10,0.00
2013-1-27,60.1,49.0,39.7,51.1,41.7,19.9,89,77,40,30.06,29.74,13,5,13,0.05
2013-1-28,74.5,60.2,47.1,56.7,48.3,41.0,86,67,41,29.85,29.65,13,4,15,0.01
2013-1-29,67.3,44.4,33.8,59.1,39.5,30.6,92,83,69,29.71,29.56,12,6,12,0.07
2013-1-30,33.8,26.4,16.5,30.8,18.9,8.5,92,74,59,30.00,29.56,13,4,13,0.01
2013-1-31,21.4,16.6,7.5,14.6,6.5,-3.1,77,64,53,30.48,29.97,15,3,15,0.00
2013-2-1,30.2,18.5,6.3,14.9,7.3,-2.5,76,62,50,30.50,30.15,9,3,9,0.00
2013-2-2,49.8,36.6,23.9,34.6,23.7,9.8,71,60,49,30.24,30.12,10,3,10,0.07
2013-2-3,51.8,40.5,27.3,29.4,21.7,15.6,75,50,27,30.30,29.83,11,4,11,0.00
2013-2-4,47.1,36.6,24.3,31.3,23.3,16.8,83,60,40,30.00,29.80,15,4,15,0.00
2013-2-5,59.7,38.0,22.1,39.0,23.8,16.9,84,61,28,30.12,29.91,9,2,9,0.00
2013-2-6,64.2,45.7,25.0,43.3,31.3,19.4,83,60,35,30.12,29.85,13,4,13,0.00
2013-2-7,52.2,45.8,32.4,45.6,37.0,25.1,92,72,54,30.24,29.88,14,5,14,0.48
2013-2-8,47.1,35.2,29.3,30.7,26.1,22.4,81,70,47,30.36,30.21,10,4,10,0.00
2013-2-9,53.2,39.9,29.7,37.8,30.8,25.7,85,71,49,30.21,29.74,13,6,13,0.00
2013-2-10,49.1,43.9,37.2,43.5,31.8,20.6,92,64,43,29.94,29.47,17,6,17,0.08
2013-2-11,46.4,35.9,25.3,24.4,20.1,12.4,71,54,33,30.21,29.94,10,3,10,0.00
2013-2-12,46.2,31.9,21.7,29.9,20.0,13.6,83,64,37,30.21,29.97,6,1,6,0.00
2013-2-13,56.3,35.6,22.5,32.1,20.3,10.7,81,58,26,29.97,29.83,14,2,14,0.00
2013-2-14,51.6,39.8,28.4,36.3,23.7,16.3,75,54,34,30.24,29.85,10,3,11,0.01
2013-2-15,39.9,30.4,18.7,29.0,16.0,5.4,92,58,32,30.42,30.24,12,4,12,0.00
2013-2-16,39.7,31.3,20.5,27.6,19.5,13.3,88,64,38,30.33,30.06,9,3,9,0.02
2013-2-17,61.3,43.5,24.1,33.4,24.0,9.8,74,48,31,30.06,29.65,13,4,13,0.00
2013-2-18,56.8,43.1,25.2,42.8,26.3,11.9,66,52,33,30.12,29.50,17,6,17,0.00
2013-2-19,36.9,27.8,22.3,17.8,8.0,-4.8,71,47,20,30.36,30.12,10,4,10,0.00
2013-2-20,28.8,21.9,16.5,10.5,5.4,1.5,55,49,40,30.39,30.18,8,4,8,0.00
2013-2-21,28.2,24.4,20.5,25.1,19.8,2.9,88,83,40,30.03,29.77,10,4,11,0.00
2013-2-22,31.1,23.0,13.6,24.4,15.9,7.1,87,74,60,30.09,29.83,14,4,14,0.00
2013-2-23,38.7,21.7,4.5,24.3,13.8,-0.9,95,72,55,30.09,29.94,6,2,6,0.06
2013-2-24,46.9,30.4,11.5,37.9,21.7,7.3,100,72,47,30.03,29.88,8,2,8,0.22
2013-2-25,37.6,34.6,31.3,30.7,26.5,22.5,88,72,64,29.97,29.77,13,6,13,0.09
2013-2-26,35.4,33.2,31.1,30.3,28.4,26.3,88,82,78,29.91,29.71,13,4,13,0.14
2013-2-27,42.1,34.1,28.8,29.7,25.2,20.1,88,71,50,30.12,29.88,13,5,13,0.20
2013-2-28,34.9,32.3,29.5,26.0,24.1,20.6,75,72,69,30.24,30.09,12,4,12,0.00
2013-3-1,33.1,29.0,26.4,23.7,19.5,16.2,74,67,60,30.36,30.24,12,5,12,0.00
2013-3-2,37.4,30.0,23.9,22.5,17.8,14.7,70,61,47,30.39,30.18,9,4,9,0.00
2013-3-3,48.7,37.1,26.8,33.3,25.4,17.8,74,63,52,30.18,29.71,11,5,11,0.00
2013-3-4,55.0,42.5,33.3,38.7,31.5,25.2,79,65,51,30.03,29.68,13,4,13,0.00
2013-3-5,40.6,33.7,26.2,30.2,18.3,12.3,75,54,43,30.39,30.03,17,7,17,0.00
2013-3-6,42.6,30.4,19.2,24.5,18.5,13.4,81,62,42,30.44,30.27,8,3,8,0.00
2013-3-7,54.1,38.7,24.6,33.7,24.8,17.1,74,59,35,30.30,30.12,13,4,13,0.00
2013-3-8,63.0,49.9,32.9,45.2,36.2,24.5,75,60,43,30.18,29.94,14,6,14,0.00
2013-3-9,55.8,52.8,47.7,54.1,45.8,36.0,96,79,54,29.94,29.59,14,4,14,1.15
2013-3-10,55.2,41.2,26.1,54.1,37.8,20.1,96,88,78,29.97,29.59,12,3,12,0.05
2013-3-11,40.8,30.4,23.5,26.6,21.3,18.0,81,70,52,30.03,29.94,12,2,15,0.00
2013-3-12,52.2,38.6,30.4,33.1,26.5,20.6,84,63,45,30.39,30.03,14,4,14,0.00
2013-3-13,47.3,34.2,21.2,29.1,22.7,15.8,85,64,47,30.50,30.30,8,2,8,0.00
2013-3-14,73.4,52.1,32.5,49.5,36.0,23.1,71,56,42,30.30,30.06,10,2,10,0.00
2013-3-15,88.2,60.6,37.6,53.8,41.1,31.2,88,54,28,30.12,29.65,10,3,10,0.00
2013-3-16,61.0,43.8,35.5,43.6,34.3,26.8,85,69,52,30.09,29.74,13,7,13,0.00
2013-3-17,61.0,36.0,32.7,52.6,30.3,25.9,92,80,57,30.09,29.77,13,4,13,0.02
2013-3-18,60.6,44.6,35.4,38.4,31.7,18.3,94,65,38,30.09,29.77,17,4,17,0.00
2013-3-19,49.6,34.7,28.9,41.3,24.8,15.6,93,68,47,30.27,30.09,5,1,5,0.12
2013-3-20,45.5,35.6,23.5,34.0,18.8,9.7,95,52,33,30.44,30.12,9,3,15,0.01
2013-3-21,36.7,31.3,28.2,27.6,17.0,8.9,96,58,41,30.12,29.88,13,3,13,0.00
2013-3-22,40.8,32.7,28.2,33.7,29.7,27.2,97,89,66,30.00,29.94,6,2,6,0.00
2013-3-23,37.9,34.6,32.0,31.9,29.2,25.7,92,81,61,30.06,29.91,13,3,13,0.00
2013-3-24,34.0,29.9,26.1,28.0,22.4,14.8,88,74,55,30.12,29.90,41,11,41,0.00
2013-3-25,34.0,29.0,23.0,24.0,19.7,13.7,77,68,60,30.36,30.11,12,5,12,0.00
2013-3-26,37.9,29.9,19.9,21.5,18.7,15.5,84,64,47,30.43,30.27,8,3,8,0.00
2013-3-27,53.1,40.1,28.0,33.0,25.4,19.7,74,58,34,30.30,30.18,29,6,29,0.00
2013-3-28,64.9,48.5,30.9,39.5,33.2,27.8,88,59,35,30.23,30.11,12,5,12,0.00
2013-3-29,71.1,54.2,39.9,42.8,39.0,35.4,85,60,27,30.22,30.10,24,8,24,0.00
2013-3-30,72.0,65.3,57.0,51.6,47.2,41.9,62,53,42,29.94,29.86,9,8,9,0.15
2013-3-31,66.0,56.7,46.0,44.8,37.6,26.5,83,53,26,30.00,29.94,28,9,28,0.00
2013-4-1,50.0,41.0,32.0,34.8,21.3,4.0,75,47,29,30.33,29.98,12,3,12,0.00
2013-4-2,52.6,39.9,27.4,21.9,19.0,15.4,74,45,26,30.36,30.25,12,2,12,0.00
2013-4-3,50.1,40.6,29.4,28.5,24.1,20.9,81,54,35,30.38,30.25,8,2,8,0.00
2013-4-4,65.5,46.3,29.1,34.1,29.5,25.4,87,56,28,30.26,30.08,12,2,12,0.00
2013-4-5,71.5,54.2,34.3,42.7,37.0,31.4,90,57,27,30.20,29.84,15,4,15,0.00
2013-4-6,75.9,62.8,44.2,65.0,45.7,40.3,86,55,30,30.00,29.69,53,11,53,0.00
2013-4-7,74.8,58.9,43.5,57.6,46.1,39.3,87,66,33,29.87,29.65,15,3,15,0.08
2013-4-8,74.4,63.5,51.8,62.0,57.2,50.4,97,81,62,29.74,29.66,12,3,12,0.01
2013-4-9,74.7,64.9,41.3,63.7,57.8,37.8,91,78,64,29.89,29.59,18,5,18,0.03
2013-4-10,42.9,37.5,33.7,41.6,35.7,32.2,96,93,89,30.00,29.73,16,4,16,1.02
2013-4-11,43.7,36.4,32.3,32.2,28.5,26.1,94,74,52,29.93,29.80,15,5,15,0.00
2013-4-12,54.9,41.1,31.2,33.5,29.2,25.8,82,65,41,30.10,29.86,15,4,15,0.00
2013-4-13,68.0,51.5,32.1,47.8,38.4,29.9,93,64,40,30.10,29.68,15,3,15,0.00
2013-4-14,69.8,61.0,57.5,49.2,46.3,44.8,65,59,47,29.67,29.47,20,9,20,0.00
2013-4-15,51.7,45.4,41.1,32.7,29.4,25.1,71,54,37,30.19,29.89,6,4,12,0.13
2013-4-16,47.5,45.9,43.6,43.3,35.3,29.0,93,68,51,30.18,29.92,8,2,13,0.13
2013-4-17,50.0,46.2,43.7,47.1,44.7,28.4,96,95,93,30.19,29.68,10,2,12,0.79
2013-4-18,43.7,39.1,35.5,42.0,35.2,24.2,96,87,64,30.04,29.67,7,2,19,0.70
2013-4-19,54.5,41.9,31.1,30.6,26.6,18.5,80,57,34,30.17,30.01,8,2,17,0.00
2013-4-20,58.0,45.3,28.8,35.9,29.9,24.5,90,58,35,30.28,30.13,7,2,13,0.00
2013-4-21,68.8,57.5,46.2,44.7,40.2,34.8,71,53,39,30.22,30.10,8,2,15,0.00
2013-4-22,63.7,53.2,39.5,52.9,43.5,36.5,92,71,47,30.14,29.92,8,1,16,0.13
2013-4-23,39.4,34.8,31.4,36.4,31.2,28.9,95,87,73,30.28,30.09,11,3,20,0.65
2013-4-24,58.4,42.7,26.2,33.8,27.4,22.8,89,58,30,30.35,30.21,7,1,12,0.00
2013-4-25,72.2,53.6,31.2,39.4,34.7,29.1,94,54,23,30.36,30.15,6,1,13,0.00
2013-4-26,57.4,51.6,49.0,49.4,46.7,37.8,95,84,52,30.24,30.14,8,1,16,0.35
2013-4-27,59.4,51.5,45.1,49.8,47.7,44.0,97,88,69,30.22,30.05,5,1,9,0.21
2013-4-28,79.0,60.1,39.8,57.4,50.8,39.2,98,75,44,30.05,29.77,6,1,12,0.00
2013-4-29,89.2,71.7,51.8,63.3,57.6,50.1,95,65,30,29.81,29.58,6,2,16,0.00
2013-4-30,85.7,75.4,65.6,60.2,56.1,52.6,68,52,40,29.77,29.60,9,3,17,0.00
2013-5-1,72.0,58.3,39.9,54.5,47.1,34.8,88,67,48,30.28,29.77,13,3,22,0.13
2013-5-2,41.1,37.9,33.1,37.7,33.2,26.1,95,84,56,30.51,30.27,12,4,21,1.29
2013-5-3,48.8,41.7,35.2,35.6,31.0,26.5,87,67,45,30.41,30.00,10,3,20,0.02
2013-5-4,46.7,41.4,36.4,43.3,38.7,34.2,94,90,82,30.12,29.93,10,3,20,0.18
2013-5-5,54.6,48.2,44.1,48.4,44.9,42.3,95,88,78,30.20,30.11,6,1,12,0.00
2013-5-6,69.7,57.0,49.7,54.3,50.3,47.5,95,80,55,30.17,30.05,6,1,9,0.00
2013-5-7,76.5,61.1,43.2,57.7,49.9,42.4,98,71,39,30.12,29.97,4,0,8,0.00
2013-5-8,75.8,65.2,57.1,62.8,57.9,51.9,96,79,56,30.02,29.86,7,1,12,0.63
2013-5-9,72.8,64.2,57.0,62.9,58.1,55.1,97,82,60,29.97,29.85,5,1,10,0.06
2013-5-10,69.8,58.9,50.3,55.2,51.2,47.3,95,77,47,30.09,29.96,10,1,14,0.00
2013-5-11,67.0,56.2,44.4,49.2,36.0,24.0,98,54,24,30.30,30.08,13,3,23,0.00
2013-5-12,69.8,52.5,34.1,42.7,34.3,25.6,96,56,24,30.33,30.15,4,0,7,0.00
2013-5-13,81.5,64.0,44.9,57.5,48.4,41.9,91,61,34,30.19,29.92,5,1,12,0.00
2013-5-14,95.1,77.7,59.4,57.2,50.8,43.8,81,44,18,29.92,29.76,8,2,16,0.00
2013-5-15,89.0,76.3,65.0,65.6,59.4,52.8,85,58,38,29.86,29.76,5,1,9,0.00
2013-5-16,81.5,70.8,61.4,64.2,61.3,59.1,96,74,48,29.87,29.77,2,0,6,0.00
2013-5-17,81.3,69.8,59.9,64.9,61.6,58.8,97,77,53,29.92,29.83,3,0,6,0.00
2013-5-18,83.8,73.5,59.2,73.1,66.8,57.9,97,80,58,29.91,29.68,11,1,16,0.00
2013-5-19,81.2,68.1,59.3,71.1,62.9,57.8,97,85,58,29.83,29.49,10,1,20,1.11
2013-5-20,84.0,69.5,55.5,61.6,56.7,50.3,98,68,32,29.74,29.61,4,1,10,0.01
2013-5-21,74.2,65.1,54.3,56.3,50.9,46.6,88,62,42,29.79,29.69,6,1,14,0.00
2013-5-22,70.5,61.0,52.8,52.9,50.4,47.1,84,69,52,29.99,29.76,6,1,16,0.00
2013-5-23,69.0,59.0,49.9,54.7,51.6,47.8,94,78,59,30.23,29.98,6,1,12,0.00
2013-5-24,75.8,63.2,47.9,55.5,51.6,46.9,98,69,45,30.31,30.10,5,1,12,0.00
2013-5-25,83.9,73.3,63.9,66.6,62.1,54.4,85,69,49,30.15,29.96,4,1,13,0.00
2013-5-26,84.3,75.6,68.5,70.4,67.6,64.5,90,77,61,30.02,29.83,5,1,12,0.00
2013-5-27,81.0,72.3,61.8,72.8,66.1,60.3,96,81,70,29.88,29.60,8,2,15,2.93
2013-5-28,83.2,76.6,70.4,73.4,69.3,65.2,89,78,69,29.76,29.62,6,1,13,0.00
2013-5-29,80.8,74.7,67.6,69.6,66.7,61.1,83,76,67,29.74,29.55,7,2,18,0.00
2013-5-30,76.4,66.4,61.1,66.0,62.4,59.4,97,88,62,29.72,29.55,3,0,8,0.82
2013-5-31,83.5,70.0,57.5,68.8,64.5,55.7,97,84,47,29.75,29.62,5,0,14,0.72
2013-6-1,69.6,65.4,59.2,66.9,54.6,48.6,92,68,59,30.02,29.69,5,1,15,0.00
2013-6-2,68.2,59.2,50.2,52.4,49.3,46.9,93,71,48,30.14,30.01,5,1,10,0.00
2013-6-3,75.8,61.8,45.3,57.9,52.1,44.5,98,73,47,30.08,29.87,4,1,10,0.00
2013-6-4,81.1,69.8,63.8,68.2,62.3,57.1,89,77,61,29.96,29.83,5,1,8,0.00
2013-6-5,69.9,64.6,59.6,64.5,61.4,58.3,96,90,73,30.00,29.91,6,1,12,0.10
2013-6-6,75.5,66.0,56.5,58.5,54.9,50.4,97,70,45,30.00,29.93,5,1,9,0.00
2013-6-7,77.4,63.4,50.8,58.1,52.2,47.3,98,71,36,30.04,29.91,6,1,12,0.00
2013-6-8,83.3,67.4,52.3,63.1,57.3,50.8,96,73,46,29.94,29.72,8,1,24,0.65
2013-6-9,83.7,70.9,60.7,62.8,57.5,49.1,97,68,31,29.87,29.76,6,1,14,0.13
2013-6-10,89.4,72.8,55.3,70.1,61.1,54.5,98,71,38,29.90,29.77,4,0,34,0.00
2013-6-11,96.5,82.5,70.1,70.9,66.4,57.3,92,63,29,29.86,29.73,6,1,26,0.00
2013-6-12,96.0,84.7,75.6,72.2,68.5,58.8,78,60,42,29.94,29.70,6,2,12,0.00
2013-6-13,85.0,73.4,61.3,64.1,59.4,54.4,81,63,45,30.06,29.94,6,1,12,0.00
2013-6-14,94.3,80.2,65.4,75.0,69.3,62.5,91,71,49,29.99,29.80,5,1,12,0.00
2013-6-15,88.6,79.3,72.0,74.6,71.1,67.1,89,77,52,29.93,29.82,4,0,8,0.01
2013-6-16,84.2,78.4,72.0,73.1,71.1,67.2,89,79,66,29.96,29.86,5,1,9,0.01
2013-6-17,84.7,74.0,66.6,71.6,68.6,64.9,97,84,59,30.00,29.87,4,0,10,0.25
2013-6-18,87.3,71.5,63.2,70.3,65.9,62.3,98,84,51,30.02,29.96,8,0,15,0.46
2013-6-19,87.7,74.7,62.1,71.6,64.7,59.8,98,74,43,30.02,29.91,3,0,9,0.00
2013-6-20,91.4,80.3,69.1,74.7,70.3,64.7,88,73,56,29.97,29.82,5,1,14,0.00
2013-6-21,92.9,83.5,76.6,76.2,72.2,68.2,84,70,53,29.91,29.82,5,1,12,0.00
2013-6-22,92.0,83.1,74.5,73.2,69.7,66.2,82,65,45,29.93,29.79,4,1,13,0.00
2013-6-23,90.8,80.8,74.8,76.4,70.9,67.4,92,73,53,29.90,29.75,7,1,12,0.09
2013-6-24,89.4,80.6,76.3,72.8,69.5,66.5,80,70,54,29.90,29.75,5,1,20,0.03
2013-6-25,89.5,81.0,72.2,75.2,71.6,68.2,96,74,57,29.85,29.65,7,1,15,0.14
2013-6-26,98.7,85.1,72.3,75.1,69.4,58.2,94,64,28,29.85,29.68,6,1,12,0.00
2013-6-27,86.1,77.0,71.1,78.9,71.3,68.0,96,83,61,29.97,29.79,8,1,13,0.36
2013-6-28,88.2,77.4,66.2,73.9,63.7,55.4,98,68,35,29.96,29.87,8,1,14,0.00
2013-6-29,84.8,74.7,64.0,62.9,57.4,50.6,83,57,32,29.90,29.82,10,2,18,0.00
2013-6-30,79.6,70.1,59.0,59.9,56.2,51.3,91,64,40,30.05,29.91,9,2,17,0.00
2013-7-1,82.7,69.8,53.7,58.4,53.2,45.4,95,60,29,30.14,30.05,10,1,15,0.00
2013-7-2,84.7,70.1,54.6,59.9,55.0,47.5,97,64,30,30.14,30.04,7,0,10,0.00
2013-7-3,88.8,71.3,56.4,59.0,55.6,49.7,95,63,28,30.09,29.96,4,0,6,0.00
2013-7-4,90.0,74.5,57.0,61.4,56.5,52.1,91,58,31,30.03,29.91,5,0,9,0.00
2013-7-5,92.3,79.3,64.8,64.5,60.3,55.7,83,55,30,29.96,29.84,5,1,9,0.00
2013-7-6,85.6,76.9,68.6,67.7,64.3,61.1,87,66,51,29.91,29.85,3,0,9,0.02
2013-7-7,92.2,80.7,68.0,72.4,67.6,62.9,94,66,47,29.93,29.85,5,1,14,0.28
2013-7-8,98.7,85.5,72.4,72.6,68.6,64.8,92,59,36,29.98,29.90,5,1,8,0.02
2013-7-9,104.2,89.1,78.4,75.2,70.8,66.4,79,57,31,29.97,29.77,7,1,16,0.00
2013-7-10,93.8,83.7,72.9,72.8,66.0,58.8,79,57,32,30.00,29.82,8,2,15,0.00
2013-7-11,91.0,78.5,65.6,65.7,62.1,56.5,91,60,33,30.07,29.93,6,0,12,0.00
2013-7-12,94.3,81.3,69.8,71.2,65.5,58.5,75,60,45,30.00,29.90,4,1,8,0.00
2013-7-13,89.2,81.2,72.2,76.4,67.2,59.7,70,63,57,29.98,29.87,2,0,4,0.00
2013-7-14,89.2,77.9,67.4,67.2,62.3,55.2,96,62,34,30.08,29.92,5,1,12,0.13
2013-7-15,91.6,77.9,64.7,68.7,64.6,59.5,92,66,40,30.15,30.06,5,0,10,0.00
2013-7-16,94.7,81.1,69.5,69.0,67.2,63.3,93,65,39,30.23,30.15,7,0,12,0.00
2013-7-17,95.7,82.0,69.0,72.8,68.3,63.7,94,66,37,30.28,30.14,3,0,6,0.00
2013-7-18,97.0,83.1,68.1,71.0,67.1,63.6,92,62,36,30.17,29.94,5,0,10,0.00
2013-7-19,98.7,84.4,72.6,72.3,67.6,64.7,96,61,35,29.97,29.80,10,1,16,1.09
2013-7-20,89.3,75.7,70.1,75.2,71.9,68.2,98,89,53,29.91,29.81,10,0,13,0.10
2013-7-21,89.4,76.7,68.6,73.3,70.5,67.7,98,83,57,29.90,29.77,2,0,5,0.00
2013-7-22,92.8,80.7,69.9,77.4,71.5,67.4,98,76,45,29.82,29.73,3,0,7,0.00
2013-7-23,86.2,76.4,70.5,72.6,70.0,64.5,98,82,60,29.95,29.77,8,1,14,0.00
2013-7-24,87.3,74.0,64.5,64.5,61.2,59.3,84,66,40,30.02,29.91,6,1,12,0.00
2013-7-25,81.3,72.3,63.5,72.8,66.8,61.1,97,84,60,30.06,29.98,1,0,4,0.12
2013-7-26,86.1,75.3,66.4,72.2,64.8,52.1,98,73,45,30.07,29.96,9,1,14,0.06
2013-7-27,71.5,64.6,56.3,61.0,57.2,53.9,95,78,57,30.12,30.00,4,0,9,0.02
2013-7-28,73.6,64.8,58.4,60.8,58.0,53.9,98,81,52,30.06,30.02,2,0,4,0.02
2013-7-29,70.5,65.3,61.2,69.9,64.3,60.2,98,97,94,30.06,29.93,2,0,7,1.43
2013-7-30,78.8,73.1,68.5,73.1,70.8,67.9,99,93,80,30.07,29.95,4,0,7,0.00
2013-7-31,86.9,75.1,65.4,70.6,67.9,64.8,99,81,51,30.11,30.01,5,0,7,0.00
2013-8-1,90.3,76.0,64.3,72.4,67.4,63.7,99,78,44,30.09,29.90,4,0,5,0.00
2013-8-2,87.2,75.5,64.2,77.6,70.7,62.6,97,86,68,29.99,29.81,7,1,12,0.70
2013-8-3,82.7,76.8,72.2,73.8,71.7,69.4,94,85,71,30.09,29.89,6,1,8,0.00
2013-8-4,78.7,71.9,66.5,72.5,69.0,65.2,97,91,79,30.12,29.99,3,0,7,0.99
2013-8-5,84.4,75.5,69.2,75.9,71.9,68.3,98,89,73,30.02,29.80,4,0,6,0.00
2013-8-6,89.8,79.2,71.0,77.4,74.4,70.1,98,87,59,29.84,29.75,4,0,10,0.29
2013-8-7,89.1,78.0,70.1,77.4,72.6,65.2,98,85,60,29.93,29.75,5,0,9,1.50
2013-8-8,72.7,70.3,68.0,68.9,66.7,64.6,94,89,83,30.00,29.87,5,0,10,0.06
2013-8-9,77.4,73.3,68.2,69.8,67.4,65.4,94,82,70,30.06,29.98,3,0,5,0.00
2013-8-10,76.3,76.3,76.3,67.8,67.8,67.8,75,75,75,30.05,30.05,0,0,0,0.00
2013-8-11,76.3,76.3,76.3,67.8,67.8,67.8,75,75,75,30.05,30.05,0,0,0,0.00
2013-8-12,85.0,70.6,65.4,69.2,66.5,63.8,97,88,59,30.05,29.95,6,0,17,1.26
2013-8-13,81.7,72.6,64.3,66.9,63.8,55.8,97,76,44,30.11,30.00,6,1,19,0.00
2013-8-14,80.7,69.4,58.5,66.3,61.8,57.6,98,79,53,30.18,30.06,48,0,55,0.00
2013-8-15,74.1,67.9,63.7,64.8,61.0,57.4,92,79,65,30.10,29.98,6,0,32,0.08
2013-8-16,77.7,69.2,61.5,62.2,59.8,56.9,88,73,54,30.15,30.05,4,0,16,0.00
2013-8-17,79.8,67.0,54.7,61.5,57.7,53.9,98,75,46,30.19,30.09,5,0,6,0.00
2013-8-18,83.3,68.6,54.1,66.3,60.5,53.3,98,78,50,30.17,30.04,3,0,5,0.00
2013-8-19,86.3,73.7,60.8,69.5,65.3,59.8,98,77,52,30.10,29.96,3,0,7,0.00
2013-8-20,90.0,77.7,67.3,70.6,67.6,65.2,94,73,49,30.03,29.94,4,0,7,0.00
2013-8-21,88.3,74.6,69.5,72.0,66.8,63.4,87,78,54,30.03,29.97,2,0,6,0.00
2013-8-24,92.4,86.9,78.5,74.7,72.3,70.8,79,63,51,30.07,30.00,3,1,8,0.00
2013-8-25,94.3,82.3,72.4,75.8,71.9,68.6,89,72,47,30.16,30.05,3,0,7,0.00
2013-8-26,94.8,82.6,71.6,73.9,71.4,69.5,94,72,45,30.11,30.00,4,0,18,0.00
2013-8-27,95.4,82.2,71.1,71.2,67.9,61.1,90,65,34,30.01,29.93,4,0,8,0.00
2013-8-28,93.3,80.5,69.1,73.0,70.0,66.1,94,72,49,30.01,29.95,3,0,8,0.00
2013-8-29,97.6,83.3,73.2,76.0,72.8,70.8,93,73,44,29.98,29.88,3,0,6,0.00
2013-8-30,102.7,85.2,70.8,73.4,70.0,65.2,92,64,31,29.92,29.77,3,0,5,0.00
2013-8-31,98.8,81.8,73.2,76.9,72.9,66.8,91,77,44,29.83,29.74,3,0,5,0.03
2013-9-1,87.7,76.7,65.4,72.9,68.8,61.0,97,79,49,29.96,29.69,12,1,20,0.41
2013-9-2,82.9,70.7,59.7,64.0,60.9,57.8,98,74,45,30.06,29.95,6,1,12,0.00
2013-9-3,81.2,81.2,81.2,61.3,61.3,61.3,51,51,51,30.00,30.00,0,0,0,0.00
2013-9-4,88.8,76.3,56.5,65.0,61.5,55.7,98,63,36,30.16,30.06,4,0,31,0.00
2013-9-5,90.2,74.9,59.9,66.0,62.3,58.7,97,69,40,30.18,30.06,4,0,20,0.00
2013-9-6,94.3,79.5,66.2,69.7,65.7,61.8,88,65,43,30.10,29.93,4,0,8,0.00
2013-9-7,100.7,84.0,70.2,71.2,68.5,65.5,86,63,36,29.95,29.83,4,0,8,0.00
2013-9-8,101.9,87.0,72.2,71.5,67.9,63.8,87,57,30,29.86,29.75,4,0,6,0.00
2013-9-9,95.9,83.5,71.4,67.9,63.7,57.0,78,54,29,29.89,29.81,6,1,12,0.00
2013-9-10,95.7,82.0,69.9,68.5,65.0,62.8,81,59,36,30.02,29.89,5,1,10,0.00
2013-9-11,95.3,81.0,68.4,70.8,65.3,62.0,84,62,36,30.08,29.97,3,0,8,0.00
2013-9-12,85.7,75.7,69.5,71.5,65.0,52.1,96,72,48,30.13,30.03,6,1,12,0.17
2013-9-13,77.9,66.4,54.9,54.9,51.7,48.6,90,62,38,30.18,30.04,6,0,10,0.00
2013-9-14,80.3,65.8,49.4,57.1,52.7,48.3,97,66,39,30.09,29.92,4,0,7,0.00
2013-9-15,87.0,71.4,62.4,69.4,61.5,52.8,95,72,50,30.14,29.90,10,1,15,0.70
2013-9-16,62.4,60.5,59.5,60.9,58.9,58.1,97,95,90,30.24,30.11,7,1,12,0.41
2013-9-17,77.6,67.8,60.5,69.7,64.9,59.6,99,91,76,30.19,29.92,4,0,7,0.75
2013-9-18,91.5,78.1,66.9,72.1,68.7,65.7,97,75,49,29.95,29.75,5,1,12,0.00
2013-9-19,92.2,77.7,66.9,71.1,68.4,64.5,96,75,46,29.93,29.67,6,1,12,0.44
2013-9-20,73.0,63.3,51.5,64.3,51.7,45.1,94,69,39,30.08,29.92,6,1,12,0.00
2013-9-21,81.4,61.4,47.1,56.9,51.5,46.3,98,74,40,30.06,29.89,3,0,13,0.00
2013-9-22,78.5,64.4,51.7,58.2,52.7,49.3,97,69,37,29.97,29.83,59,0,59,0.00
2013-9-23,78.8,65.4,52.3,56.6,52.6,49.0,92,66,37,29.89,29.72,6,1,32,0.00
2013-9-24,71.4,65.2,59.0,62.6,57.9,54.4,90,78,64,29.87,29.72,7,0,50,0.00
2013-9-25,81.5,66.4,53.2,64.8,59.4,52.4,98,80,53,29.91,29.77,3,0,31,0.00
2013-9-26,88.2,74.0,60.3,63.2,60.4,58.1,93,66,38,29.85,29.76,6,1,12,0.00
2013-9-27,87.3,76.2,67.2,64.8,60.9,57.4,79,61,37,29.91,29.79,5,1,13,0.00
2013-9-28,74.5,65.3,50.1,66.1,56.3,47.7,95,75,42,30.09,29.74,6,1,14,0.18
2013-9-29,76.8,57.9,42.7,52.9,48.0,41.9,98,74,37,30.13,29.95,3,0,4,0.01
2013-9-30,80.0,60.5,44.5,57.6,50.7,43.6,98,75,36,29.95,29.80,3,0,21,0.00
2013-10-1,84.3,69.4,53.4,67.6,61.6,51.8,97,78,56,29.94,29.83,4,0,7,0.00
2013-10-2,82.7,69.7,58.1,71.4,64.8,57.3,98,86,61,29.98,29.84,3,0,5,0.00
2013-10-3,84.3,73.0,63.4,71.9,67.6,61.0,96,84,63,29.89,29.67,7,1,13,0.16
2013-10-4,88.6,75.9,60.3,72.5,67.2,47.6,95,76,48,29.93,29.65,6,2,15,0.46
2013-10-5,62.3,52.5,44.9,46.3,38.5,34.3,81,60,39,30.05,29.91,5,1,12,0.02
2013-10-6,61.4,51.4,44.3,46.6,41.5,35.2,94,70,55,30.05,29.90,51,1,69,0.00
2013-10-7,75.2,54.5,39.7,48.3,42.9,37.7,94,70,31,30.18,30.05,3,0,6,0.00
2013-10-8,74.4,60.2,45.6,51.4,46.8,43.4,95,66,35,30.10,29.98,5,1,12,0.00
2013-10-9,77.0,62.9,49.1,54.4,50.4,46.3,92,66,42,30.06,29.97,4,0,8,0.00
2013-10-10,79.1,64.9,52.1,59.8,53.7,47.8,88,69,47,30.03,29.82,4,1,12,0.00
2013-10-11,78.1,68.0,59.9,65.7,59.7,48.4,91,75,58,29.88,29.70,5,1,13,0.00
2013-10-12,69.0,56.0,44.5,48.7,43.4,36.6,94,67,31,30.28,29.88,6,1,12,0.00
2013-10-13,70.1,53.9,37.7,44.0,39.6,35.8,98,65,29,30.42,30.28,5,0,10,0.00
2013-10-14,67.0,59.0,53.1,62.2,50.0,37.7,96,74,50,30.29,29.81,5,1,12,0.76
2013-10-15,61.0,53.6,45.8,60.1,44.2,38.1,97,71,52,30.12,29.85,4,1,14,0.05
2013-10-16,58.4,50.5,43.0,42.8,39.6,37.6,84,67,48,30.15,30.01,3,0,8,0.00
2013-10-17,65.8,51.0,36.5,46.8,39.8,34.7,97,69,34,30.08,29.93,4,0,12,0.00
2013-10-18,45.5,38.8,34.0,39.7,36.3,32.8,97,91,79,30.20,30.08,3,0,7,0.35
2013-10-19,63.2,44.3,29.2,44.1,36.0,28.5,98,78,36,30.16,29.91,5,0,13,0.01
2013-10-20,71.5,54.2,40.3,47.6,43.1,38.4,93,69,38,29.98,29.79,5,0,12,0.00
2013-10-21,56.5,47.4,39.9,41.9,36.4,29.9,92,67,42,30.16,29.98,6,1,10,0.00
2013-10-22,61.9,50.2,41.1,45.8,40.3,35.6,94,71,45,30.16,29.96,11,1,20,0.00
2013-10-23,53.1,41.0,31.8,39.4,35.7,30.3,96,82,55,30.23,30.08,3,0,5,0.00
2013-10-24,50.2,41.4,30.3,37.3,32.3,25.4,94,73,40,30.48,30.22,5,1,10,0.00
2013-10-25,57.4,41.3,25.4,36.0,29.3,24.2,97,67,32,30.51,30.18,4,0,9,0.00
2013-10-26,60.2,47.6,33.8,43.4,36.5,31.6,96,69,36,30.23,30.11,6,1,13,0.00
2013-10-27,65.2,44.7,26.5,37.0,32.1,25.3,97,67,32,30.22,29.95,4,0,7,0.00
2013-10-28,60.4,47.7,34.6,52.4,43.3,32.8,95,85,64,30.16,30.00,3,0,8,0.00
2013-10-29,64.7,58.1,52.8,64.1,56.9,50.6,98,96,85,30.11,29.91,7,0,50,0.43
2013-10-30,73.0,61.8,53.7,68.1,60.2,52.8,99,95,84,29.96,29.71,4,0,7,1.12
2013-10-31,60.3,50.6,42.2,53.0,47.1,40.8,98,89,60,29.75,29.58,5,0,9,0.02
2013-11-1,60.9,48.3,38.9,45.0,40.7,37.6,97,77,45,30.07,29.68,5,1,13,0.05
2013-11-2,56.8,44.7,35.6,39.6,36.4,33.3,95,75,42,30.26,30.07,4,0,9,0.00
2013-11-3,59.1,49.1,35.4,42.1,37.4,33.2,95,66,46,30.19,29.87,6,2,13,0.00
2013-11-4,64.8,56.5,51.4,51.9,47.2,41.8,85,71,55,30.09,29.83,6,1,14,0.00
2013-11-5,59.5,55.3,40.5,58.6,53.8,38.8,97,94,86,30.09,29.83,6,1,12,0.51
2013-11-6,44.7,38.3,29.6,38.8,34.2,28.6,97,86,71,30.39,30.01,6,1,12,0.12
2013-11-7,56.0,39.1,27.5,39.5,32.0,26.8,98,79,40,30.48,30.37,4,0,12,0.01
2013-11-8,68.1,50.4,29.4,38.7,33.6,28.4,98,58,25,30.37,29.87,8,2,17,0.00
2013-11-9,66.3,48.5,35.1,40.5,36.0,31.8,94,67,28,30.34,29.99,6,0,9,0.00
2013-11-10,58.9,47.3,32.9,41.1,36.0,30.9,97,68,42,30.45,30.23,4,0,6,0.00
2013-11-11,59.8,44.1,27.2,53.2,38.0,15.2,93,79,60,30.73,30.18,13,3,21,0.00
2013-11-12,34.7,24.4,16.3,16.0,12.8,8.9,81,63,35,30.96,30.73,10,1,18,0.00
2013-11-13,49.9,33.7,18.4,21.9,17.5,13.1,82,55,32,30.76,30.20,6,1,13,0.00
2013-11-14,59.8,45.5,36.5,31.9,27.3,21.7,66,50,29,30.20,29.96,4,2,8,0.00
2013-11-15,59.6,49.0,33.7,47.3,38.7,29.4,86,68,53,29.98,29.70,6,2,15,0.00
2013-11-16,74.5,63.9,51.8,59.8,54.9,47.1,88,74,45,29.70,29.35,9,4,16,0.00
2013-11-17,65.2,58.0,43.4,59.7,38.4,16.4,87,52,17,30.12,29.30,13,4,32,0.00
2013-11-18,59.2,42.1,29.2,34.7,29.3,24.3,95,65,27,30.33,30.11,3,0,6,0.00
2013-11-19,63.2,48.7,29.2,30.4,27.2,22.3,90,49,22,30.28,29.95,8,2,16,0.00
2013-11-20,55.5,49.4,41.6,38.5,34.3,24.7,87,58,35,29.96,29.83,7,2,18,0.17
2013-11-21,48.4,37.5,26.9,43.0,33.9,23.9,93,87,79,30.54,29.95,10,2,17,0.06
2013-11-22,27.7,25.2,22.4,24.0,20.9,18.3,89,84,78,30.74,30.53,9,2,15,0.00
2013-11-23,27.1,23.3,15.4,20.7,13.5,7.0,81,66,46,30.90,30.69,10,3,20,0.00
2013-11-24,27.8,21.3,13.2,15.1,10.6,6.9,84,64,44,30.85,30.40,4,1,7,0.00
2013-11-25,41.7,32.2,26.1,26.5,20.7,15.1,90,63,49,30.40,30.23,5,1,7,0.00
2013-11-26,38.3,29.1,19.0,26.3,18.5,9.0,89,67,31,30.51,30.25,12,2,21,0.00
2013-11-27,36.3,25.0,13.0,15.7,11.6,8.5,84,59,37,30.53,30.23,4,1,10,0.00
2013-11-28,39.6,30.1,19.8,24.2,19.6,15.2,86,66,50,30.55,30.21,7,1,12,0.00
2013-11-29,53.4,34.4,17.8,30.5,23.3,15.7,94,67,36,30.56,30.26,7,1,13,0.00
2013-11-30,56.6,40.6,29.0,38.4,31.8,25.8,94,72,50,30.26,30.10,4,0,6,0.00
2013-12-1,56.1,37.5,23.9,39.3,31.1,22.7,96,80,47,30.17,29.90,3,0,5,0.00
2013-12-2,56.2,43.8,31.7,44.1,38.5,29.4,96,83,58,29.90,29.61,6,1,9,0.00
2013-12-3,59.6,46.8,37.2,46.9,41.2,35.9,97,82,59,29.63,29.53,5,1,8,0.00
2013-12-4,40.0,30.7,20.5,36.9,26.4,11.4,96,84,63,30.17,29.56,6,2,16,0.03
2013-12-5,20.4,17.4,13.8,13.4,7.1,3.6,80,64,56,30.51,30.15,8,2,13,0.00
2013-12-6,17.0,13.2,8.3,5.1,-0.7,-2.9,67,54,42,30.78,30.48,9,3,16,0.00
2013-12-7,20.7,12.4,2.2,6.0,0.8,-4.1,75,60,44,30.85,30.45,6,1,10,0.00
2013-12-8,22.9,19.9,14.7,20.9,15.2,5.6,95,83,53,30.45,30.06,5,1,8,0.00
2013-12-9,17.0,10.4,6.4,11.9,4.0,-0.1,92,76,50,30.54,30.28,4,0,7,0.00
2013-12-10,39.0,23.7,9.0,21.6,13.6,3.8,85,66,46,30.44,30.25,4,0,6,0.00
2013-12-11,26.4,19.4,9.6,22.3,9.8,1.1,93,68,38,30.72,30.30,9,2,17,0.00
2013-12-12,47.7,28.5,9.9,24.0,15.2,3.0,78,59,36,30.69,30.21,6,1,12,0.02
2013-12-13,39.7,34.8,28.6,35.5,31.1,24.0,95,86,77,30.21,29.88,7,1,12,0.03
2013-12-14,32.6,25.5,16.4,31.3,21.1,14.2,95,84,63,30.32,29.99,8,2,18,0.01
2013-12-15,54.2,33.2,15.5,31.1,24.0,13.3,93,72,39,30.30,30.03,4,0,6,0.00
2013-12-16,62.0,40.3,23.9,34.8,27.5,20.9,90,64,30,30.20,30.01,8,1,10,0.00
2013-12-17,48.9,32.6,22.5,33.2,23.9,19.3,95,73,39,30.37,30.20,7,1,12,0.00
2013-12-18,67.2,47.2,24.6,37.4,30.7,19.4,83,56,29,30.27,29.78,10,2,20,0.00
2013-12-19,56.7,50.0,35.3,49.2,42.7,31.5,88,76,60,29.78,29.64,7,1,12,0.00
2013-12-20,35.1,21.7,18.0,31.5,18.9,15.6,93,89,86,30.03,29.77,8,2,14,0.00
2013-12-21,26.5,23.3,20.6,24.4,20.4,16.9,94,88,84,30.00,29.73,8,2,12,0.00
2013-12-22,26.3,19.6,5.8,21.5,16.3,3.3,94,87,74,30.47,29.85,5,1,12,0.00
2013-12-23,14.9,10.6,4.9,7.0,4.9,2.4,93,78,64,30.75,30.47,5,0,9,0.00
2013-12-24,29.7,19.0,5.3,27.5,13.8,0.9,93,80,59,30.69,30.26,8,1,20,0.00
2013-12-25,40.9,29.9,19.9,30.0,25.5,18.3,95,84,62,30.42,30.33,6,1,12,0.07
2013-12-26,49.3,31.4,17.3,31.3,24.1,15.6,96,77,46,30.41,30.23,8,1,16,0.13
2013-12-27,57.5,36.2,19.7,33.9,26.4,18.1,95,72,34,30.40,30.22,3,0,6,0.00
2013-12-28,57.3,42.3,29.0,34.4,31.2,26.4,92,68,38,30.22,29.89,12,1,25,0.00
2013-12-29,36.8,17.7,9.4,29.2,5.4,-5.6,76,59,34,30.44,30.03,12,3,22,0.00
2013-12-30,36.2,20.2,7.7,17.3,6.8,-4.5,86,57,36,30.41,30.25,6,1,10,0.00
2013-12-31,54.0,34.1,15.9,29.1,20.7,13.7,93,63,26,30.42,30.08,12,1,23,0.00
2014-1-1,39.1,17.9,7.3,24.9,12.7,3.3,88,80,56,30.46,30.08,11,3,18,0.00
2014-1-2,17.7,9.2,0.8,8.9,2.9,-3.4,85,75,65,30.59,30.45,4,1,9,0.00